Time;durP1;ratioP1;P1;durP2;ratioP2;P2;SDS_P1;SDS_P2;PMS_P1;PMS_P2;Temp;Humidity;BMP_temperature;BMP_pressure;BME280_temperature;BME280_humidity;BME280_pressure;Samples;Min_cycle;Max_cycle;Signal;HPM_P1;HPM_P2
2022/04/08 00:00:02;;;;;;;0.45;0.10;;;6.10;99.90;;;;;;5015265;28;20516;-77
2022/04/08 00:02:27;;;;;;;1.00;0.40;;;6.10;99.90;;;;;;5044862;28;20025;-77
2022/04/08 00:04:55;;;;;;;1.05;0.38;;;6.20;99.90;;;;;;5030774;28;20403;-77
2022/04/08 00:07:20;;;;;;;0.32;0.10;;;6.10;99.90;;;;;;5032346;28;20079;-77
2022/04/08 00:09:46;;;;;;;3.63;0.32;;;6.10;99.90;;;;;;5043674;28;20052;-77
2022/04/08 00:12:12;;;;;;;2.45;0.10;;;6.10;99.90;;;;;;5044457;28;20052;-77
2022/04/08 00:14:38;;;;;;;1.85;0.38;;;6.10;99.90;;;;;;5046974;28;20072;-77
2022/04/08 00:17:04;;;;;;;1.80;0.30;;;6.10;99.90;;;;;;5036200;28;20061;-78
2022/04/08 00:19:31;;;;;;;2.03;0.35;;;6.10;99.90;;;;;;5042944;28;20079;-77
2022/04/08 00:21:56;;;;;;;1.90;0.47;;;6.10;99.90;;;;;;5039837;28;20061;-77
2022/04/08 00:24:22;;;;;;;0.50;0.35;;;6.10;99.90;;;;;;5035010;28;20052;-77
2022/04/08 00:26:47;;;;;;;0.88;0.20;;;6.00;99.90;;;;;;5030421;28;20053;-77
2022/04/08 00:29:16;;;;;;;3.08;0.25;;;6.10;99.90;;;;;;5018890;28;20659;-77
2022/04/08 00:31:42;;;;;;;0.82;0.35;;;6.00;99.90;;;;;;5040281;28;20057;-77
2022/04/08 00:34:07;;;;;;;1.58;0.17;;;6.00;99.90;;;;;;5040032;28;20102;-78
2022/04/08 00:36:33;;;;;;;0.20;0.10;;;6.00;99.90;;;;;;5039741;28;20063;-77
2022/04/08 00:38:58;;;;;;;0.98;0.28;;;6.10;99.90;;;;;;5032288;28;20037;-77
2022/04/08 00:41:24;;;;;;;0.10;0.10;;;6.00;99.90;;;;;;5045916;28;20064;-77
2022/04/08 00:43:50;;;;;;;0.85;0.50;;;6.10;99.90;;;;;;5030598;28;20037;-77
2022/04/08 00:46:15;;;;;;;1.75;0.40;;;6.00;99.90;;;;;;5034761;28;20090;-77
2022/04/08 00:48:41;;;;;;;4.07;0.50;;;6.00;99.90;;;;;;5032163;28;20128;-77
2022/04/08 00:51:07;;;;;;;0.10;0.10;;;6.00;99.90;;;;;;5035945;28;20452;-77
2022/04/08 00:53:36;;;;;;;0.60;0.20;;;6.00;99.90;;;;;;5063221;28;20573;-77
2022/04/08 00:56:03;;;;;;;0.10;0.10;;;5.90;99.90;;;;;;5029499;28;20040;-77
2022/04/08 00:58:31;;;;;;;0.10;0.10;;;5.80;99.90;;;;;;5051854;28;20491;-77
2022/04/08 01:00:57;;;;;;;0.40;0.20;;;5.70;99.90;;;;;;5036338;28;20128;-77
2022/04/08 01:03:23;;;;;;;0.75;0.40;;;5.60;99.90;;;;;;5029029;28;20037;-77
2022/04/08 01:05:48;;;;;;;3.30;0.30;;;5.50;99.90;;;;;;5063429;28;20037;-78
2022/04/08 01:08:17;;;;;;;1.10;0.10;;;5.40;99.90;;;;;;5041517;28;20128;-77
2022/04/08 01:10:43;;;;;;;0.10;0.10;;;5.40;99.90;;;;;;5027977;28;20066;-77
2022/04/08 01:13:09;;;;;;;0.00;0.00;;;5.40;99.90;;;;;;5039573;28;20038;-77
2022/04/08 01:15:34;;;;;;;4.10;0.40;;;5.30;99.90;;;;;;5026792;28;20381;-77
2022/04/08 01:18:00;;;;;;;0.35;0.13;;;5.30;99.90;;;;;;5040805;28;20048;-77
2022/04/08 01:20:26;;;;;;;0.15;0.10;;;5.20;99.90;;;;;;5044040;28;20041;-77
2022/04/08 01:22:52;;;;;;;0.88;0.40;;;5.20;99.90;;;;;;5060114;28;20086;-77
2022/04/08 01:25:17;;;;;;;1.30;0.40;;;5.20;99.90;;;;;;5045158;28;20052;-77
2022/04/08 01:27:43;;;;;;;0.40;0.17;;;5.10;99.90;;;;;;5046404;28;20048;-77
2022/04/08 01:30:12;;;;;;;0.40;0.20;;;5.10;99.90;;;;;;5062119;28;20110;-77
2022/04/08 01:32:37;;;;;;;0.95;0.47;;;5.00;99.90;;;;;;5043027;28;20056;-77
2022/04/08 01:35:04;;;;;;;0.10;0.10;;;4.90;99.90;;;;;;5044448;28;20347;-77
2022/04/08 01:37:30;;;;;;;0.08;0.08;;;4.90;99.90;;;;;;5053585;28;20076;-77
2022/04/08 01:39:56;;;;;;;3.28;0.43;;;4.80;99.90;;;;;;5046450;28;20037;-78
2022/04/08 01:42:24;;;;;;;0.77;0.20;;;4.80;99.90;;;;;;5038304;28;20061;-77
2022/04/08 01:44:51;;;;;;;0.20;0.10;;;4.80;99.90;;;;;;5045911;28;20044;-77
2022/04/08 01:47:16;;;;;;;2.08;0.20;;;4.80;99.90;;;;;;5042939;28;20048;-77
2022/04/08 01:49:42;;;;;;;1.63;0.32;;;4.80;99.90;;;;;;5036223;28;20044;-78
2022/04/08 01:52:08;;;;;;;0.32;0.20;;;4.80;99.90;;;;;;5043986;28;20047;-77
2022/04/08 01:54:33;;;;;;;1.52;0.30;;;4.80;99.90;;;;;;5045428;28;20037;-78
2022/04/08 01:56:59;;;;;;;0.70;0.10;;;4.80;99.90;;;;;;5044594;28;20037;-78
2022/04/08 01:59:24;;;;;;;0.32;0.13;;;4.80;99.90;;;;;;5043112;28;20511;-77
2022/04/08 02:01:50;;;;;;;0.10;0.10;;;4.80;99.90;;;;;;5019004;28;20526;-77
2022/04/08 02:04:16;;;;;;;0.52;0.10;;;4.80;99.90;;;;;;5033440;28;20371;-78
2022/04/08 02:06:42;;;;;;;0.73;0.38;;;4.80;99.90;;;;;;5040053;28;20039;-78
2022/04/08 02:09:09;;;;;;;0.17;0.08;;;4.80;99.90;;;;;;5046124;28;20055;-78
2022/04/08 02:11:35;;;;;;;7.35;0.28;;;4.80;99.90;;;;;;5038053;28;20119;-78
2022/04/08 02:14:01;;;;;;;0.55;0.20;;;4.70;99.90;;;;;;5057300;28;20040;-78
2022/04/08 02:16:27;;;;;;;0.38;0.20;;;4.70;99.90;;;;;;5054952;28;20106;-78
2022/04/08 02:18:53;;;;;;;4.68;0.38;;;4.70;99.90;;;;;;5041605;28;20057;-78
2022/04/08 02:21:19;;;;;;;0.80;0.35;;;4.70;99.90;;;;;;5037991;28;20516;-78
2022/04/08 02:23:46;;;;;;;0.20;0.08;;;4.60;99.90;;;;;;5033214;28;20394;-78
2022/04/08 02:26:13;;;;;;;0.63;0.13;;;4.60;99.90;;;;;;5035976;28;20059;-78
2022/04/08 02:28:39;;;;;;;2.60;0.20;;;4.50;99.90;;;;;;5039313;28;20096;-78
2022/04/08 02:31:05;;;;;;;1.38;0.35;;;4.50;99.90;;;;;;5040258;28;20040;-78
2022/04/08 02:33:31;;;;;;;0.57;0.20;;;4.50;99.90;;;;;;5040941;28;20068;-78
2022/04/08 02:35:57;;;;;;;0.25;0.05;;;4.50;99.90;;;;;;5027692;28;20522;-78
2022/04/08 02:38:22;;;;;;;0.08;0.03;;;4.40;99.90;;;;;;5036036;28;20040;-78
2022/04/08 02:40:48;;;;;;;0.70;0.20;;;4.40;99.90;;;;;;5043392;28;20033;-78
2022/04/08 02:43:14;;;;;;;0.10;0.10;;;4.40;99.90;;;;;;5065051;28;20037;-78
2022/04/08 02:45:39;;;;;;;0.88;0.28;;;4.40;99.90;;;;;;5044823;28;20601;-78
2022/04/08 02:48:05;;;;;;;5.38;0.50;;;4.30;99.90;;;;;;5033871;28;20032;-78
2022/04/08 02:50:31;;;;;;;2.90;0.30;;;4.30;99.90;;;;;;5046112;28;20546;-78
2022/04/08 02:52:56;;;;;;;1.98;0.20;;;4.30;99.90;;;;;;5044320;28;20041;-78
2022/04/08 02:55:22;;;;;;;0.20;0.10;;;4.30;99.90;;;;;;5029129;28;20048;-78
2022/04/08 02:57:48;;;;;;;1.25;0.47;;;4.40;99.90;;;;;;5044116;28;20041;-77
2022/04/08 03:00:18;;;;;;;6.13;0.35;;;4.40;99.90;;;;;;5043795;28;20045;-78
2022/04/08 03:02:45;;;;;;;0.47;0.15;;;4.40;99.90;;;;;;5029492;28;20112;-78
2022/04/08 03:05:11;;;;;;;2.03;0.32;;;4.40;99.90;;;;;;5034428;28;20102;-77
2022/04/08 03:07:37;;;;;;;5.05;0.70;;;4.40;99.90;;;;;;5042602;28;20515;-78
2022/04/08 03:10:04;;;;;;;0.20;0.15;;;4.40;99.90;;;;;;5045664;28;20045;-77
2022/04/08 03:12:30;;;;;;;3.20;0.50;;;4.50;99.90;;;;;;5020440;28;20364;-77
2022/04/08 03:14:56;;;;;;;1.17;0.30;;;4.50;99.90;;;;;;5043960;28;20119;-78
2022/04/08 03:17:22;;;;;;;3.10;0.30;;;4.50;99.90;;;;;;5039049;28;20033;-78
2022/04/08 03:19:48;;;;;;;0.75;0.20;;;4.50;99.90;;;;;;5047556;28;20109;-78
2022/04/08 03:22:13;;;;;;;1.75;0.43;;;4.50;99.90;;;;;;5027918;28;20029;-77
2022/04/08 03:24:39;;;;;;;6.05;0.60;;;4.50;99.90;;;;;;5049934;28;20032;-77
2022/04/08 03:27:04;;;;;;;3.65;0.20;;;4.40;99.90;;;;;;5043491;28;20052;-77
2022/04/08 03:29:30;;;;;;;10.18;0.40;;;4.40;99.90;;;;;;5029617;28;20513;-78
2022/04/08 03:31:56;;;;;;;2.60;0.30;;;4.30;99.90;;;;;;5030732;28;20052;-78
2022/04/08 03:34:21;;;;;;;0.10;0.10;;;4.30;99.90;;;;;;5044550;28;20033;-78
2022/04/08 03:36:47;;;;;;;1.67;0.52;;;4.30;99.90;;;;;;5041173;28;20047;-78
2022/04/08 03:39:16;;;;;;;0.57;0.32;;;4.20;99.90;;;;;;5057953;28;20033;-77
2022/04/08 03:41:41;;;;;;;0.50;0.20;;;4.20;99.90;;;;;;5049478;28;20069;-78
2022/04/08 03:44:07;;;;;;;0.47;0.20;;;4.10;99.90;;;;;;5045997;28;20122;-78
2022/04/08 03:46:33;;;;;;;1.02;0.22;;;4.10;99.90;;;;;;5048584;28;20033;-78
2022/04/08 03:48:58;;;;;;;1.52;0.28;;;4.10;99.90;;;;;;5046838;28;20069;-77
2022/04/08 03:51:24;;;;;;;0.63;0.30;;;4.10;99.90;;;;;;5047880;28;20055;-77
2022/04/08 03:53:50;;;;;;;0.52;0.30;;;4.00;99.90;;;;;;5045556;28;20040;-77
2022/04/08 03:56:15;;;;;;;3.67;0.63;;;4.10;99.90;;;;;;5031928;28;20055;-78
2022/04/08 03:58:41;;;;;;;0.30;0.10;;;4.10;99.90;;;;;;5046223;28;20139;-78
2022/04/08 04:01:07;;;;;;;2.75;0.68;;;4.20;99.90;;;;;;5047968;28;20041;-77
2022/04/08 04:03:32;;;;;;;1.08;0.32;;;4.20;99.90;;;;;;5038539;28;20459;-78
2022/04/08 04:05:58;;;;;;;0.13;0.10;;;4.20;99.90;;;;;;5045355;28;20067;-78
2022/04/08 04:08:24;;;;;;;0.32;0.20;;;4.30;99.90;;;;;;5041686;28;20128;-78
2022/04/08 04:10:49;;;;;;;4.57;0.65;;;4.30;99.90;;;;;;5048614;28;20041;-78
2022/04/08 04:13:15;;;;;;;0.55;0.20;;;4.40;99.90;;;;;;5045924;28;20048;-78
2022/04/08 04:15:41;;;;;;;0.45;0.32;;;4.30;99.90;;;;;;5046473;28;20090;-78
2022/04/08 04:18:08;;;;;;;0.22;0.20;;;4.30;99.90;;;;;;5043485;28;20037;-78
2022/04/08 04:20:34;;;;;;;2.47;0.40;;;4.30;99.90;;;;;;5045236;28;20673;-78
2022/04/08 04:22:59;;;;;;;0.40;0.30;;;4.30;99.90;;;;;;5031143;28;20041;-77
2022/04/08 04:25:26;;;;;;;10.45;0.63;;;4.30;99.90;;;;;;5033226;28;20045;-78
2022/04/08 04:27:51;;;;;;;0.50;0.30;;;4.30;99.90;;;;;;5063973;28;20498;-78
2022/04/08 04:30:17;;;;;;;0.10;0.10;;;4.20;99.90;;;;;;5044861;28;20052;-78
2022/04/08 04:32:42;;;;;;;0.10;0.10;;;4.20;99.90;;;;;;5031451;28;20661;-78
2022/04/08 04:35:08;;;;;;;0.28;0.20;;;4.20;99.90;;;;;;5042515;28;20048;-78
2022/04/08 04:37:35;;;;;;;0.50;0.25;;;4.10;99.90;;;;;;5048026;28;20045;-78
2022/04/08 04:40:01;;;;;;;0.17;0.15;;;4.10;99.90;;;;;;5037639;28;20033;-78
2022/04/08 04:42:28;;;;;;;0.20;0.20;;;4.00;99.90;;;;;;5028444;28;20064;-78
2022/04/08 04:44:54;;;;;;;0.40;0.13;;;4.00;99.90;;;;;;5037871;28;20037;-77
2022/04/08 04:47:20;;;;;;;0.63;0.30;;;4.00;99.90;;;;;;5047810;28;20045;-78
2022/04/08 04:49:46;;;;;;;0.13;0.10;;;3.90;99.90;;;;;;5045123;28;20049;-78
2022/04/08 04:52:12;;;;;;;0.30;0.28;;;3.90;99.90;;;;;;5047470;28;20033;-78
2022/04/08 04:54:37;;;;;;;1.05;0.32;;;3.90;99.90;;;;;;5047047;28;20049;-78
2022/04/08 04:57:03;;;;;;;0.55;0.20;;;3.80;99.90;;;;;;5033561;28;20743;-77
2022/04/08 04:59:29;;;;;;;3.60;0.40;;;3.80;99.90;;;;;;5046636;28;20059;-77
2022/04/08 05:01:55;;;;;;;0.30;0.20;;;3.80;99.90;;;;;;5043779;28;20041;-77
2022/04/08 05:04:20;;;;;;;1.23;0.52;;;3.80;99.90;;;;;;5041616;28;20040;-78
2022/04/08 05:06:46;;;;;;;3.25;0.35;;;3.80;99.90;;;;;;5030509;28;20040;-78
2022/04/08 05:09:12;;;;;;;0.77;0.20;;;3.80;99.90;;;;;;5052674;28;20132;-78
2022/04/08 05:11:37;;;;;;;0.43;0.20;;;3.80;99.90;;;;;;5042016;28;20036;-77
2022/04/08 05:14:03;;;;;;;0.85;0.10;;;3.80;99.90;;;;;;5037168;28;20137;-78
2022/04/08 05:16:29;;;;;;;0.43;0.30;;;3.90;99.90;;;;;;5037086;28;20084;-78
2022/04/08 05:18:55;;;;;;;5.20;0.40;;;3.90;99.90;;;;;;5044390;28;20179;-78
2022/04/08 05:21:21;;;;;;;1.15;0.40;;;3.90;99.90;;;;;;5055329;28;20044;-78
2022/04/08 05:23:47;;;;;;;0.47;0.30;;;4.00;99.90;;;;;;5045497;28;20055;-78
2022/04/08 05:26:14;;;;;;;1.10;0.60;;;4.10;99.90;;;;;;5044736;28;20053;-78
2022/04/08 05:28:39;;;;;;;1.85;0.30;;;4.10;99.90;;;;;;5047177;28;20048;-78
2022/04/08 05:31:05;;;;;;;0.43;0.22;;;4.20;99.90;;;;;;5043037;28;20045;-78
2022/04/08 05:33:31;;;;;;;1.70;0.47;;;4.20;99.90;;;;;;5025238;28;20056;-78
2022/04/08 05:35:56;;;;;;;1.17;0.50;;;4.20;99.90;;;;;;5047125;28;20514;-78
2022/04/08 05:38:22;;;;;;;0.80;0.25;;;4.30;99.90;;;;;;5034943;28;20048;-78
2022/04/08 05:40:49;;;;;;;0.20;0.15;;;4.20;99.90;;;;;;5038184;28;20068;-78
2022/04/08 05:43:15;;;;;;;0.85;0.55;;;4.30;99.90;;;;;;5051432;28;20087;-77
2022/04/08 05:45:41;;;;;;;3.90;0.63;;;4.30;99.90;;;;;;5029546;28;20033;-77
2022/04/08 05:48:07;;;;;;;0.82;0.40;;;4.20;99.90;;;;;;5042011;28;20481;-77
2022/04/08 05:50:33;;;;;;;0.55;0.32;;;4.20;99.90;;;;;;5040149;28;20025;-77
2022/04/08 05:52:59;;;;;;;0.60;0.30;;;4.20;99.90;;;;;;5042466;28;20132;-77
2022/04/08 05:55:25;;;;;;;1.23;0.40;;;4.20;99.90;;;;;;5058119;28;20043;-78
2022/04/08 05:57:53;;;;;;;1.60;0.80;;;4.20;99.90;;;;;;5035728;28;20041;-78
2022/04/08 06:00:20;;;;;;;0.80;0.43;;;4.20;99.90;;;;;;5046640;28;20041;-78
2022/04/08 06:02:47;;;;;;;0.40;0.30;;;4.30;99.90;;;;;;5030953;28;20056;-78
2022/04/08 06:05:20;;;;;;;6.75;0.68;;;4.30;99.90;;;;;;5031589;28;20036;-77
2022/04/08 06:07:48;;;;;;;0.68;0.30;;;4.30;99.90;;;;;;5046133;28;20052;-78
2022/04/08 06:10:18;;;;;;;0.25;0.20;;;4.40;99.90;;;;;;5042649;28;20123;-78
2022/04/08 06:12:47;;;;;;;6.10;1.40;;;4.40;99.90;;;;;;5035594;28;20056;-77
2022/04/08 06:15:13;;;;;;;1.20;0.55;;;4.50;99.90;;;;;;5034920;28;20041;-78
2022/04/08 06:17:39;;;;;;;0.63;0.35;;;4.50;99.90;;;;;;5041891;28;20094;-78
2022/04/08 06:20:09;;;;;;;1.65;0.50;;;4.60;99.90;;;;;;5025394;28;20113;-78
2022/04/08 06:22:39;;;;;;;0.40;0.20;;;4.60;99.90;;;;;;5034608;28;20044;-78
2022/04/08 06:25:06;;;;;;;0.73;0.50;;;4.70;99.90;;;;;;5042876;28;20037;-77
2022/04/08 06:27:31;;;;;;;0.85;0.35;;;4.70;99.90;;;;;;5056120;28;20415;-78
2022/04/08 06:29:57;;;;;;;0.45;0.13;;;4.70;99.90;;;;;;5039929;28;20045;-77
2022/04/08 06:32:23;;;;;;;0.57;0.38;;;4.70;99.90;;;;;;5019845;28;20032;-78
2022/04/08 06:34:48;;;;;;;0.20;0.20;;;4.70;99.90;;;;;;5056816;28;20049;-78
2022/04/08 06:37:14;;;;;;;0.52;0.32;;;4.70;99.90;;;;;;5025813;28;20048;-78
2022/04/08 06:39:39;;;;;;;3.03;0.30;;;4.80;99.90;;;;;;5036045;28;20061;-78
2022/04/08 06:42:05;;;;;;;1.25;0.28;;;4.70;99.90;;;;;;5038874;28;20098;-79
2022/04/08 06:44:31;;;;;;;0.25;0.25;;;4.80;99.90;;;;;;5033807;28;20049;-78
2022/04/08 06:46:57;;;;;;;0.20;0.20;;;4.80;99.90;;;;;;5036815;28;20037;-77
2022/04/08 06:49:22;;;;;;;0.20;0.20;;;4.80;99.90;;;;;;5025996;28;20041;-77
2022/04/08 06:51:49;;;;;;;0.65;0.40;;;4.80;99.90;;;;;;5022892;28;20033;-78
2022/04/08 06:54:15;;;;;;;0.38;0.20;;;4.90;99.90;;;;;;5039129;28;20045;-80
2022/04/08 06:56:41;;;;;;;0.90;0.28;;;5.00;99.90;;;;;;5039532;28;20501;-80
2022/04/08 06:59:06;;;;;;;1.42;0.32;;;5.00;99.90;;;;;;5038059;28;20406;-79
2022/04/08 07:01:33;;;;;;;0.47;0.30;;;5.10;99.90;;;;;;5060874;28;20037;-79
2022/04/08 07:03:58;;;;;;;0.45;0.35;;;5.00;99.90;;;;;;5042739;28;20490;-80
2022/04/08 07:06:24;;;;;;;3.83;1.30;;;5.00;99.90;;;;;;5042587;28;20052;-79
2022/04/08 07:08:50;;;;;;;0.73;0.30;;;5.00;99.90;;;;;;5044281;28;20063;-80
2022/04/08 07:11:16;;;;;;;0.43;0.30;;;5.00;99.90;;;;;;5059613;28;20036;-79
2022/04/08 07:13:41;;;;;;;1.50;0.47;;;5.00;99.90;;;;;;5039588;28;20399;-79
2022/04/08 07:16:08;;;;;;;0.57;0.30;;;5.10;99.90;;;;;;5045497;28;20079;-78
2022/04/08 07:18:34;;;;;;;0.47;0.43;;;5.20;99.90;;;;;;5042131;28;20045;-79
2022/04/08 07:21:00;;;;;;;1.05;0.52;;;5.10;99.90;;;;;;5044421;28;20037;-79
2022/04/08 07:23:26;;;;;;;1.23;0.45;;;5.20;99.90;;;;;;5041862;28;20505;-79
2022/04/08 07:25:51;;;;;;;0.30;0.30;;;5.30;99.90;;;;;;5043884;28;20183;-79
2022/04/08 07:28:17;;;;;;;1.20;0.50;;;5.50;99.90;;;;;;5040897;28;20051;-78
2022/04/08 07:30:43;;;;;;;0.40;0.30;;;5.50;99.90;;;;;;5041260;28;20068;-78
2022/04/08 07:33:08;;;;;;;1.33;0.52;;;5.60;99.90;;;;;;5043154;28;20032;-79
2022/04/08 07:35:34;;;;;;;1.05;0.38;;;5.70;99.90;;;;;;5040175;28;20094;-79
2022/04/08 07:38:05;;;;;;;7.75;0.47;;;5.90;99.90;;;;;;5038454;28;20040;-79
2022/04/08 07:40:31;;;;;;;0.40;0.38;;;6.00;99.90;;;;;;5060072;28;20564;-79
2022/04/08 07:42:57;;;;;;;0.47;0.28;;;6.00;99.90;;;;;;5042406;28;20045;-79
2022/04/08 07:45:27;;;;;;;0.40;0.22;;;6.10;99.90;;;;;;5021908;28;20071;-79
2022/04/08 07:47:55;;;;;;;0.47;0.28;;;6.00;99.90;;;;;;5052354;28;20037;-79
2022/04/08 07:50:21;;;;;;;0.32;0.17;;;6.10;99.90;;;;;;5039572;28;20624;-79
2022/04/08 07:52:47;;;;;;;0.85;0.35;;;6.20;99.90;;;;;;5039647;28;20069;-79
2022/04/08 07:55:13;;;;;;;2.17;0.35;;;6.30;99.90;;;;;;5042293;28;20119;-79
2022/04/08 07:57:49;;;;;;;1.10;0.45;;;6.40;99.90;;;;;;5036474;28;20567;-79
2022/04/08 08:00:20;;;;;;;0.55;0.30;;;6.60;99.90;;;;;;5052633;28;20064;-79
2022/04/08 08:02:47;;;;;;;7.28;0.73;;;6.70;99.90;;;;;;5053606;28;20037;-79
2022/04/08 08:05:13;;;;;;;1.02;0.40;;;6.50;99.90;;;;;;5041088;28;20513;-79
2022/04/08 08:07:45;;;;;;;0.55;0.40;;;6.40;99.90;;;;;;5024776;28;20385;-79
2022/04/08 08:10:14;;;;;;;1.45;0.47;;;6.30;99.90;;;;;;5043116;28;20045;-79
2022/04/08 08:12:40;;;;;;;0.40;0.32;;;6.20;99.90;;;;;;5034019;28;20041;-78
2022/04/08 08:15:06;;;;;;;0.98;0.45;;;6.20;99.90;;;;;;5021861;28;20040;-79
2022/04/08 08:17:31;;;;;;;2.75;0.95;;;6.20;99.90;;;;;;5042727;28;20099;-78
2022/04/08 08:19:57;;;;;;;3.08;0.65;;;6.20;99.90;;;;;;5043282;28;20037;-79
2022/04/08 08:22:23;;;;;;;1.45;0.70;;;6.30;99.90;;;;;;5037750;28;20087;-78
2022/04/08 08:24:49;;;;;;;3.65;1.20;;;6.30;99.90;;;;;;5028985;28;20047;-79
2022/04/08 08:27:15;;;;;;;0.80;0.57;;;6.40;99.90;;;;;;5040463;28;20079;-79
2022/04/08 08:29:41;;;;;;;0.90;0.35;;;6.50;99.90;;;;;;5058813;28;20048;-79
2022/04/08 08:32:06;;;;;;;0.82;0.47;;;6.50;99.90;;;;;;5037606;28;20124;-79
2022/04/08 08:34:32;;;;;;;2.60;0.77;;;6.60;99.90;;;;;;5040936;28;20041;-79
2022/04/08 08:36:59;;;;;;;2.38;0.80;;;6.60;99.90;;;;;;5043787;28;20041;-79
2022/04/08 08:39:26;;;;;;;1.38;0.70;;;6.70;99.90;;;;;;5052949;28;20055;-80
2022/04/08 08:41:52;;;;;;;1.10;0.38;;;6.70;99.90;;;;;;5023229;28;20041;-80
2022/04/08 08:44:19;;;;;;;0.77;0.52;;;6.80;99.90;;;;;;5037204;28;20120;-80
2022/04/08 08:46:45;;;;;;;1.25;0.52;;;6.80;99.90;;;;;;5040031;28;20080;-80
2022/04/08 08:49:17;;;;;;;1.85;1.10;;;6.80;99.90;;;;;;5039718;28;20079;-80
2022/04/08 08:51:51;;;;;;;1.35;0.60;;;6.90;99.90;;;;;;5037542;28;20059;-79
2022/04/08 08:54:17;;;;;;;1.38;0.60;;;7.00;99.90;;;;;;5024075;28;20986;-80
2022/04/08 08:56:43;;;;;;;1.23;0.50;;;7.00;99.90;;;;;;5055056;28;20068;-80
2022/04/08 08:59:10;;;;;;;1.15;0.50;;;7.10;99.90;;;;;;5024695;28;20071;-80
2022/04/08 09:01:36;;;;;;;0.82;0.50;;;7.10;99.90;;;;;;5033870;28;20041;-79
2022/04/08 09:04:01;;;;;;;3.38;0.80;;;7.10;99.90;;;;;;5044484;28;20409;-80
2022/04/08 09:06:27;;;;;;;1.15;0.40;;;7.10;99.90;;;;;;5041929;28;20055;-80
2022/04/08 09:08:58;;;;;;;1.60;0.68;;;7.20;99.90;;;;;;5037247;28;20052;-80
2022/04/08 09:11:25;;;;;;;1.48;0.65;;;7.20;99.90;;;;;;5040251;28;20041;-80
2022/04/08 09:13:50;;;;;;;4.40;0.70;;;7.30;99.90;;;;;;5056214;28;20068;-80
2022/04/08 09:16:25;;;;;;;0.60;0.45;;;7.40;99.90;;;;;;5023947;28;20202;-80
2022/04/08 09:18:50;;;;;;;0.80;0.63;;;7.50;99.90;;;;;;5038181;28;20045;-80
2022/04/08 09:21:24;;;;;;;1.17;0.52;;;7.50;99.90;;;;;;5033411;28;20089;-79
2022/04/08 09:23:50;;;;;;;1.90;0.77;;;7.60;99.90;;;;;;5060247;28;20097;-80
2022/04/08 09:26:15;;;;;;;1.73;1.00;;;7.70;99.90;;;;;;5040242;28;20063;-81
2022/04/08 09:28:41;;;;;;;1.48;0.50;;;7.70;99.90;;;;;;5040055;28;20033;-80
2022/04/08 09:31:17;;;;;;;2.80;0.95;;;7.80;99.90;;;;;;5025449;28;20155;-79
2022/04/08 09:33:50;;;;;;;2.65;0.88;;;7.80;99.90;;;;;;5039997;28;20033;-80
2022/04/08 09:36:45;;;;;;;3.63;0.63;;;7.80;99.90;;;;;;5026939;28;20049;-80
2022/04/08 09:39:11;;;;;;;4.03;0.52;;;7.80;99.90;;;;;;5021870;28;20106;-80
2022/04/08 09:41:42;;;;;;;1.13;0.43;;;7.80;99.90;;;;;;5040251;28;20038;-79
2022/04/08 09:44:09;;;;;;;2.92;0.85;;;7.80;99.90;;;;;;5037697;28;20048;-80
2022/04/08 09:46:36;;;;;;;1.58;0.73;;;7.80;99.90;;;;;;5035029;28;20045;-80
2022/04/08 09:49:06;;;;;;;3.20;0.47;;;7.70;99.90;;;;;;5040618;28;20037;-80
2022/04/08 09:51:39;;;;;;;3.72;0.85;;;7.60;99.90;;;;;;5057381;28;20183;-80
2022/04/08 09:54:09;;;;;;;0.50;0.47;;;7.70;99.90;;;;;;5053102;28;20666;-79
2022/04/08 09:56:36;;;;;;;3.85;1.00;;;7.60;99.90;;;;;;5040488;28;20568;-81
2022/04/08 09:59:15;;;;;;;6.35;2.15;;;7.60;99.90;;;;;;5037490;28;21191;-80
2022/04/08 10:01:43;;;;;;;1.92;0.73;;;7.70;99.90;;;;;;5032811;28;20045;-80
2022/04/08 10:04:10;;;;;;;4.88;1.27;;;7.80;99.90;;;;;;5048609;28;20056;-80
2022/04/08 10:06:36;;;;;;;2.47;0.82;;;7.90;99.90;;;;;;5031810;28;21307;-80
2022/04/08 10:09:05;;;;;;;2.35;0.73;;;8.00;99.90;;;;;;5034511;28;20033;-80
2022/04/08 10:11:33;;;;;;;5.80;1.75;;;8.10;99.90;;;;;;5036067;28;20076;-79
2022/04/08 10:14:04;;;;;;;4.05;2.28;;;8.20;99.90;;;;;;5035863;28;20294;-80
2022/04/08 10:16:31;;;;;;;2.25;1.48;;;8.30;99.90;;;;;;5020502;28;20576;-81
2022/04/08 10:19:04;;;;;;;0.82;0.47;;;8.40;99.90;;;;;;5055283;28;20039;-80
2022/04/08 10:21:38;;;;;;;7.70;4.50;;;8.40;99.90;;;;;;5035851;28;20087;-80
2022/04/08 10:24:13;;;;;;;5.78;1.60;;;8.50;99.90;;;;;;5036210;28;20151;-80
2022/04/08 10:27:00;;;;;;;10.88;1.67;;;8.50;99.90;;;;;;5018224;28;20053;-80
2022/04/08 10:29:25;;;;;;;2.78;2.22;;;8.50;99.90;;;;;;5034725;28;20052;-80
2022/04/08 10:31:56;;;;;;;5.82;1.23;;;8.60;99.90;;;;;;5028582;28;20033;-80
2022/04/08 10:34:23;;;;;;;2.25;0.93;;;8.60;99.90;;;;;;5015807;28;20075;-80
2022/04/08 10:36:49;;;;;;;1.77;1.00;;;8.70;99.90;;;;;;5019125;28;20041;-80
2022/04/08 10:39:19;;;;;;;3.10;1.08;;;8.70;99.90;;;;;;5032788;28;20039;-81
2022/04/08 10:41:46;;;;;;;0.77;0.52;;;8.80;99.90;;;;;;5037297;28;20060;-80
2022/04/08 10:44:12;;;;;;;1.60;0.80;;;8.70;99.90;;;;;;5036712;28;20044;-80
2022/04/08 10:46:49;;;;;;;2.70;0.90;;;8.70;99.90;;;;;;5033608;28;20048;-80
2022/04/08 10:49:14;;;;;;;3.15;0.85;;;8.70;99.90;;;;;;5020156;28;20064;-80
2022/04/08 10:51:49;;;;;;;0.50;0.40;;;8.60;99.90;;;;;;5018720;28;20068;-80
2022/04/08 10:54:15;;;;;;;3.25;0.73;;;8.50;99.90;;;;;;5048936;28;20083;-80
2022/04/08 10:56:41;;;;;;;0.60;0.40;;;8.40;99.90;;;;;;5016211;28;20490;-80
2022/04/08 10:59:07;;;;;;;0.98;0.45;;;8.30;99.90;;;;;;5053221;28;20037;-79
2022/04/08 11:01:47;;;;;;;2.38;0.55;;;8.20;99.90;;;;;;5014399;28;20033;-80
2022/04/08 11:04:12;;;;;;;1.38;0.47;;;8.20;99.90;;;;;;5034580;28;20037;-79
2022/04/08 11:06:38;;;;;;;4.45;0.68;;;8.20;99.90;;;;;;5019938;28;20040;-79
2022/04/08 11:09:14;;;;;;;0.77;0.32;;;8.20;99.90;;;;;;5036341;28;20452;-79
2022/04/08 11:11:40;;;;;;;;;;;8.20;99.90;;;;;;5029423;28;20079;-78
2022/04/08 11:14:07;;;;;;;2.90;0.50;;;8.20;99.90;;;;;;5035723;28;19921;-79
2022/04/08 11:16:35;;;;;;;1.05;0.30;;;8.30;99.90;;;;;;5027934;28;20151;-79
2022/04/08 11:19:09;;;;;;;0.65;0.38;;;8.20;99.90;;;;;;5053879;28;20651;-79
2022/04/08 11:21:40;;;;;;;1.70;0.40;;;8.20;99.90;;;;;;5035806;28;20037;-79
2022/04/08 11:24:14;;;;;;;4.28;0.70;;;8.20;99.90;;;;;;5037898;28;20052;-79
2022/04/08 11:26:48;;;;;;;3.38;1.58;;;8.20;99.90;;;;;;5030926;28;20098;-80
2022/04/08 11:29:22;;;;;;;1.70;0.43;;;8.40;99.90;;;;;;5031372;28;20401;-80
2022/04/08 11:31:50;;;;;;;1.52;0.70;;;8.50;99.90;;;;;;5045570;28;20033;-80
2022/04/08 11:34:16;;;;;;;0.70;0.40;;;8.50;99.90;;;;;;5030016;28;20048;-80
2022/04/08 11:36:43;;;;;;;0.80;0.43;;;8.60;99.90;;;;;;5032712;28;20131;-80
2022/04/08 11:39:10;;;;;;;2.72;0.93;;;8.60;99.90;;;;;;5034610;28;20037;-80
2022/04/08 11:41:37;;;;;;;4.20;1.30;;;8.80;99.90;;;;;;5039601;28;20502;-80
2022/04/08 11:44:05;;;;;;;1.38;0.60;;;8.80;99.90;;;;;;5033724;28;20125;-81
2022/04/08 11:46:31;;;;;;;1.20;0.60;;;8.90;99.90;;;;;;5037003;28;20152;-81
2022/04/08 11:48:56;;;;;;;1.52;0.77;;;9.00;99.90;;;;;;5039472;28;21564;-82
2022/04/08 11:51:22;;;;;;;1.52;0.70;;;9.00;99.90;;;;;;5055645;28;20029;-81
2022/04/08 11:53:50;;;;;;;0.98;0.43;;;9.00;99.90;;;;;;5037542;28;20041;-81
2022/04/08 11:56:26;;;;;;;0.65;0.30;;;8.90;99.90;;;;;;5040797;28;20116;-81
2022/04/08 11:59:03;;;;;;;1.65;0.30;;;8.60;99.90;;;;;;5049482;28;20064;-80
2022/04/08 12:01:34;;;;;;;2.30;0.43;;;8.20;99.90;;;;;;5034815;28;20033;-80
2022/04/08 12:04:02;;;;;;;1.90;0.43;;;7.70;99.90;;;;;;5025063;28;20538;-78
2022/04/08 12:06:39;;;;;;;1.00;0.35;;;7.40;99.90;;;;;;5040460;28;20487;-80
2022/04/08 12:09:05;;;;;;;1.35;0.45;;;7.30;99.90;;;;;;5042757;28;20045;-77
2022/04/08 12:11:32;;;;;;;0.47;0.40;;;7.20;99.90;;;;;;5020107;28;20049;-79
2022/04/08 12:13:58;;;;;;;1.83;0.80;;;7.20;99.90;;;;;;5034458;28;20063;-78
2022/04/08 12:16:28;;;;;;;0.40;0.20;;;7.20;99.90;;;;;;5055547;28;20037;-77
2022/04/08 12:18:55;;;;;;;0.38;0.30;;;7.40;99.90;;;;;;5037126;28;20414;-77
2022/04/08 12:21:25;;;;;;;0.70;0.43;;;7.50;99.90;;;;;;5020504;28;20506;-78
2022/04/08 12:23:53;;;;;;;2.45;0.55;;;7.60;99.90;;;;;;5055873;28;20028;-77
2022/04/08 12:26:19;;;;;;;0.82;0.50;;;7.60;99.90;;;;;;5030497;28;20536;-80
2022/04/08 12:28:46;;;;;;;3.05;1.15;;;7.60;99.90;;;;;;5051583;28;20059;-78
2022/04/08 12:31:17;;;;;;;1.05;0.75;;;7.60;99.90;;;;;;5037471;28;20143;-78
2022/04/08 12:33:43;;;;;;;0.85;0.43;;;7.60;99.90;;;;;;5033576;28;20063;-77
2022/04/08 12:36:11;;;;;;;4.57;0.45;;;7.70;99.90;;;;;;5038969;28;20075;-82
2022/04/08 12:38:40;;;;;;;0.20;0.13;;;7.70;99.90;;;;;;5033245;28;20042;-78
2022/04/08 12:41:08;;;;;;;1.13;0.45;;;7.80;99.90;;;;;;5032064;28;20037;-79
2022/04/08 12:43:34;;;;;;;7.25;0.50;;;7.80;99.90;;;;;;5033388;28;20499;-79
2022/04/08 12:46:00;;;;;;;0.20;0.17;;;7.80;99.90;;;;;;5019913;28;20040;-79
2022/04/08 12:48:25;;;;;;;0.50;0.30;;;7.90;99.90;;;;;;5033538;28;20391;-78
2022/04/08 12:50:51;;;;;;;0.20;0.20;;;7.90;99.90;;;;;;5018236;28;20028;-78
2022/04/08 12:53:16;;;;;;;0.28;0.22;;;8.00;99.90;;;;;;5053422;28;20095;-79
2022/04/08 12:55:42;;;;;;;0.25;0.25;;;8.10;99.90;;;;;;5038036;28;20526;-79